Terminal Aerodrome Forecast
Issued by NWS Cleveland, OH

Home | Current Version | Previous Version | Graphics & Text | Print | Product List | Glossary Off
Versions: 1 2 3 4 5 6 7 8 9 10 11 12 13 14 15 16 17 18 19

000
FTUS41 KCLE 181121
TAFYNG
TAF
KYNG 181121Z 1812/1912 26010KT P6SM OVC028
     FM181800 24006KT P6SM SCT035
     FM190000 10006KT P6SM -RA OVC040
     FM190300 10006KT P6SM -RA OVC015
     FM190500 07007KT 5SM -RA OVC007
     FM190700 36006KT 6SM -RASN OVC007
     FM190900 34009KT 4SM -SN OVC007=

USA.gov is the U.S. government's official web portal to all federal, state and local government web resources and services.